Time;durP1;ratioP1;P1;durP2;ratioP2;P2;SDS_P1;SDS_P2;PMS_P1;PMS_P2;Temp;Humidity;BMP_temperature;BMP_pressure;BME280_temperature;BME280_humidity;BME280_pressure;Samples;Min_cycle;Max_cycle;Signal;HPM_P1;HPM_P2
2023/12/02 00:00:17;;;;;;;28.77;10.90;;;;;;;-1.44;92.06;100903.13;5057089;28;20567;-71
2023/12/02 00:02:42;;;;;;;32.45;13.32;;;;;;;-1.43;92.51;100902.25;5050109;28;20032;-71
2023/12/02 00:05:07;;;;;;;30.48;13.52;;;;;;;-1.44;92.36;100904.91;5057099;28;20032;-71
2023/12/02 00:07:33;;;;;;;29.33;12.85;;;;;;;-1.46;93.31;100910.22;5059459;28;20540;-71
2023/12/02 00:09:58;;;;;;;29.85;13.68;;;;;;;-1.47;93.54;100905.84;5058295;28;20051;-71
2023/12/02 00:12:23;;;;;;;27.75;12.35;;;;;;;-1.45;94.19;100893.50;5062670;28;20032;-71
2023/12/02 00:14:48;;;;;;;27.90;11.82;;;;;;;-1.47;93.97;100897.94;5057097;28;20075;-71
2023/12/02 00:17:14;;;;;;;29.35;12.30;;;;;;;-1.47;94.39;100890.03;5053345;28;20025;-71
2023/12/02 00:19:39;;;;;;;29.85;11.65;;;;;;;-1.47;93.80;100884.75;5042311;28;20034;-71
2023/12/02 00:22:06;;;;;;;28.45;11.98;;;;;;;-1.49;93.27;100886.56;5057722;28;20021;-71
2023/12/02 00:24:32;;;;;;;31.23;13.70;;;;;;;-1.50;93.08;100890.09;5050829;28;20467;-71
2023/12/02 00:26:57;;;;;;;25.10;10.95;;;;;;;-1.54;92.40;100898.97;5050853;28;20028;-71
2023/12/02 00:29:22;;;;;;;24.58;10.50;;;;;;;-1.58;92.51;100908.72;5047278;28;20504;-71
2023/12/02 00:31:47;;;;;;;28.23;11.80;;;;;;;-1.58;93.25;100910.50;5048222;28;20025;-71
2023/12/02 00:34:13;;;;;;;28.63;11.63;;;;;;;-1.59;93.78;100899.06;5054740;28;20145;-71
2023/12/02 00:36:38;;;;;;;27.85;12.73;;;;;;;-1.60;93.64;100907.03;5051858;28;20070;-71
2023/12/02 00:39:03;;;;;;;29.30;13.27;;;;;;;-1.59;94.03;100904.34;5058775;28;20021;-71
2023/12/02 00:41:29;;;;;;;28.02;12.45;;;;;;;-1.56;93.62;100915.75;5048723;28;20060;-71
2023/12/02 00:43:54;;;;;;;32.42;14.32;;;;;;;-1.55;94.09;100905.16;5053974;28;20177;-71
2023/12/02 00:46:19;;;;;;;29.30;12.77;;;;;;;-1.57;92.49;100904.31;5056822;28;20046;-71
2023/12/02 00:48:45;;;;;;;28.58;11.95;;;;;;;-1.63;92.47;100915.84;5056633;28;20064;-71
2023/12/02 00:51:10;;;;;;;26.45;11.13;;;;;;;-1.67;92.55;100908.06;5059089;28;20209;-71
2023/12/02 00:53:35;;;;;;;25.95;9.85;;;;;;;-1.71;92.06;100901.09;5054165;28;20020;-71
2023/12/02 00:56:00;;;;;;;28.17;11.82;;;;;;;-1.73;91.64;100903.78;5060433;28;20550;-71
2023/12/02 00:58:26;;;;;;;29.52;12.88;;;;;;;-1.74;92.06;100904.69;5056989;28;20032;-71
2023/12/02 01:00:51;;;;;;;24.98;11.43;;;;;;;-1.72;92.50;100908.16;5052001;28;20021;-71
2023/12/02 01:03:16;;;;;;;27.33;12.55;;;;;;;-1.71;92.48;100906.38;5052130;28;20032;-71
2023/12/02 01:05:41;;;;;;;27.92;11.73;;;;;;;-1.73;92.06;100909.03;5052593;28;20033;-71
2023/12/02 01:08:07;;;;;;;28.95;13.18;;;;;;;-1.73;92.71;100900.28;5042878;28;20020;-71
2023/12/02 01:10:32;;;;;;;28.02;12.13;;;;;;;-1.72;93.19;100900.25;5056776;28;20028;-71
2023/12/02 01:12:57;;;;;;;30.40;13.63;;;;;;;-1.70;93.19;100897.59;5052107;28;20025;-72
2023/12/02 01:15:23;;;;;;;28.55;13.15;;;;;;;-1.70;92.93;100900.22;5056007;28;20039;-71
2023/12/02 01:17:48;;;;;;;29.15;12.88;;;;;;;-1.68;92.17;100901.91;5051358;28;20063;-71
2023/12/02 01:20:13;;;;;;;29.05;11.68;;;;;;;-1.65;93.06;100901.00;5053106;28;20124;-71
2023/12/02 01:22:39;;;;;;;29.17;12.55;;;;;;;-1.63;91.60;100888.66;5049812;28;20020;-71
2023/12/02 01:25:04;;;;;;;28.70;11.55;;;;;;;-1.62;91.60;100887.75;5049905;28;20131;-71
2023/12/02 01:27:30;;;;;;;27.70;12.20;;;;;;;-1.62;91.28;100885.13;5052582;28;20028;-71
2023/12/02 01:29:55;;;;;;;29.30;13.02;;;;;;;-1.62;92.02;100885.97;5052810;28;20049;-71
2023/12/02 01:32:20;;;;;;;29.13;11.95;;;;;;;-1.62;91.56;100893.03;5053326;28;20032;-71
2023/12/02 01:34:46;;;;;;;26.95;11.38;;;;;;;-1.63;91.40;100905.31;5052041;28;20071;-71
2023/12/02 01:37:12;;;;;;;28.83;13.07;;;;;;;-1.64;92.80;100905.34;5055476;28;20016;-71
2023/12/02 01:39:37;;;;;;;29.23;13.65;;;;;;;-1.63;92.07;100901.81;5056611;28;20028;-71
2023/12/02 01:42:03;;;;;;;28.20;12.10;;;;;;;-1.61;92.69;100905.28;5051635;28;20025;-71
2023/12/02 01:44:28;;;;;;;29.33;11.75;;;;;;;-1.62;92.67;100911.47;5052647;28;20025;-71
2023/12/02 01:46:53;;;;;;;31.83;13.73;;;;;;;-1.61;92.54;100915.81;5050189;28;20291;-71
2023/12/02 01:49:20;;;;;;;30.50;14.07;;;;;;;-1.62;93.16;100916.75;5058737;28;20552;-71
2023/12/02 01:51:46;;;;;;;29.67;13.35;;;;;;;-1.61;92.80;100924.59;5055407;28;20523;-71
2023/12/02 01:54:11;;;;;;;29.08;13.43;;;;;;;-1.61;92.49;100927.25;5052308;28;20402;-69
2023/12/02 01:56:37;;;;;;;29.10;11.98;;;;;;;-1.60;92.48;100925.47;5060878;28;20032;-70
2023/12/02 01:59:03;;;;;;;26.77;11.98;;;;;;;-1.59;93.36;100924.56;5059199;28;20039;-69
2023/12/02 02:01:29;;;;;;;30.08;11.73;;;;;;;-1.60;93.05;100918.44;5058990;28;20115;-71
2023/12/02 02:03:55;;;;;;;26.40;11.48;;;;;;;-1.61;93.20;100923.72;5057237;28;20031;-71
2023/12/02 02:06:21;;;;;;;30.48;13.45;;;;;;;-1.59;94.06;100928.06;5055457;28;20025;-71
2023/12/02 02:08:46;;;;;;;27.55;11.80;;;;;;;-1.61;93.73;100921.97;5055906;28;20109;-71
2023/12/02 02:11:12;;;;;;;32.85;12.77;;;;;;;-1.61;93.79;100926.34;5054466;28;20039;-71
2023/12/02 02:13:37;;;;;;;30.05;11.55;;;;;;;-1.65;94.62;100928.22;5051534;28;20108;-71
2023/12/02 02:16:03;;;;;;;27.25;12.60;;;;;;;-1.66;94.50;100925.59;5055618;28;20039;-71
2023/12/02 02:18:29;;;;;;;28.35;11.88;;;;;;;-1.67;93.86;100921.22;5059145;28;20055;-71
2023/12/02 02:20:54;;;;;;;29.52;12.57;;;;;;;-1.65;94.03;100916.81;5053206;28;20503;-71
2023/12/02 02:23:21;;;;;;;30.85;13.52;;;;;;;-1.65;93.88;100917.66;5053374;28;20036;-71
2023/12/02 02:25:50;;;;;;;29.60;12.48;;;;;;;-1.65;93.58;100922.09;5049607;28;20043;-71
2023/12/02 02:28:23;;;;;;;29.83;12.83;;;;;;;-1.68;93.73;100923.00;5044805;28;20032;-71
2023/12/02 02:30:49;;;;;;;31.05;13.15;;;;;;;-1.71;94.18;100924.81;5047992;28;20016;-71
2023/12/02 02:33:15;;;;;;;28.33;11.55;;;;;;;-1.70;95.26;100931.84;5053438;28;20782;-71
2023/12/02 02:35:40;;;;;;;31.00;13.30;;;;;;;-1.71;94.80;100930.97;5056873;28;20048;-71
2023/12/02 02:38:05;;;;;;;30.02;13.77;;;;;;;-1.71;95.37;100917.81;5059075;28;20421;-71
2023/12/02 02:40:30;;;;;;;28.58;11.85;;;;;;;-1.70;95.98;100924.78;5057671;28;20447;-71
2023/12/02 02:42:56;;;;;;;28.08;12.65;;;;;;;-1.70;95.30;100940.59;5053994;28;20500;-71
2023/12/02 02:45:23;;;;;;;32.17;14.73;;;;;;;-1.68;95.60;100938.81;5056417;28;20029;-71
2023/12/02 02:47:51;;;;;;;26.35;12.05;;;;;;;-1.66;95.83;100942.28;5057740;28;20078;-71
2023/12/02 02:50:17;;;;;;;31.60;13.65;;;;;;;-1.67;95.23;100944.94;5050764;28;20135;-71
2023/12/02 02:52:43;;;;;;;32.75;14.55;;;;;;;-1.65;95.26;100946.66;5051009;28;20368;-71
2023/12/02 02:55:08;;;;;;;28.55;11.85;;;;;;;-1.64;95.76;100951.03;5050726;28;20024;-71
2023/12/02 02:57:34;;;;;;;28.33;12.93;;;;;;;-1.62;96.05;100948.38;5054489;28;20555;-71
2023/12/02 02:59:59;;;;;;;28.73;12.65;;;;;;;-1.56;95.75;100944.72;5045884;28;20021;-71
2023/12/02 03:02:24;;;;;;;27.77;12.60;;;;;;;-1.49;95.88;100948.97;5056208;28;20063;-71
2023/12/02 03:04:50;;;;;;;27.67;11.82;;;;;;;-1.44;95.12;100955.84;5054259;28;20025;-71
2023/12/02 03:07:15;;;;;;;31.17;13.88;;;;;;;-1.43;94.99;100951.47;5056087;28;20037;-71
2023/12/02 03:09:40;;;;;;;30.15;13.55;;;;;;;-1.47;95.45;100953.28;5057358;28;20063;-71
2023/12/02 03:12:06;;;;;;;29.40;14.75;;;;;;;-1.48;94.80;100962.13;5051307;28;20021;-71
2023/12/02 03:14:31;;;;;;;30.02;12.18;;;;;;;-1.47;94.74;100950.66;5053663;28;20048;-71
2023/12/02 03:16:57;;;;;;;29.33;13.23;;;;;;;-1.44;95.57;100961.13;5054938;28;20028;-71
2023/12/02 03:19:22;;;;;;;30.73;13.50;;;;;;;-1.41;95.31;100947.91;5056356;28;20021;-71
2023/12/02 03:21:47;;;;;;;29.55;13.40;;;;;;;-1.38;94.96;100952.22;5052135;28;20052;-71
2023/12/02 03:24:13;;;;;;;28.20;11.55;;;;;;;-1.35;94.08;100943.38;5053357;28;20036;-72
2023/12/02 03:26:38;;;;;;;30.00;13.32;;;;;;;-1.38;94.89;100946.94;5054797;28;20077;-73
2023/12/02 03:29:04;;;;;;;30.23;12.40;;;;;;;-1.39;94.06;100952.25;5053185;28;20036;-73
2023/12/02 03:31:29;;;;;;;28.98;13.40;;;;;;;-1.41;94.22;100957.56;5051942;28;20025;-72
2023/12/02 03:33:55;;;;;;;28.65;12.07;;;;;;;-1.38;94.92;100946.09;5056156;28;20115;-72
2023/12/02 03:36:20;;;;;;;30.63;13.48;;;;;;;-1.40;94.29;100943.50;5047878;28;20024;-72
2023/12/02 03:38:45;;;;;;;30.13;12.95;;;;;;;-1.41;94.27;100947.91;5048623;28;20027;-73
2023/12/02 03:41:11;;;;;;;27.90;12.20;;;;;;;-1.43;93.66;100944.41;5048776;28;20138;-72
2023/12/02 03:43:36;;;;;;;29.60;12.30;;;;;;;-1.44;93.48;100945.31;5047801;28;20493;-73
2023/12/02 03:46:02;;;;;;;29.77;13.30;;;;;;;-1.44;93.74;100944.44;5052438;28;20032;-73
2023/12/02 03:48:27;;;;;;;27.40;12.63;;;;;;;-1.47;93.14;100958.56;5051529;28;20431;-72
2023/12/02 03:50:53;;;;;;;28.23;11.95;;;;;;;-1.48;93.63;100951.56;5054645;28;20025;-72
2023/12/02 03:53:18;;;;;;;29.63;12.00;;;;;;;-1.49;93.81;100956.88;5048193;28;20170;-72
2023/12/02 03:55:44;;;;;;;29.48;13.25;;;;;;;-1.51;93.67;100956.03;5051113;28;20031;-72
2023/12/02 03:58:10;;;;;;;29.25;12.32;;;;;;;-1.53;93.21;100952.56;5051771;28;20033;-73
2023/12/02 04:00:35;;;;;;;27.30;10.93;;;;;;;-1.55;93.46;100957.00;5054011;28;20024;-73
2023/12/02 04:03:01;;;;;;;32.20;14.90;;;;;;;-1.61;93.44;100972.03;5052672;28;20078;-72
2023/12/02 04:05:26;;;;;;;31.17;13.00;;;;;;;-1.60;93.99;100983.44;5053237;28;20029;-72
2023/12/02 04:07:51;;;;;;;31.45;13.45;;;;;;;-1.59;94.79;100975.50;5053098;28;20024;-72
2023/12/02 04:10:17;;;;;;;29.35;13.20;;;;;;;-1.58;93.90;100963.22;5054397;28;20039;-73
2023/12/02 04:12:42;;;;;;;26.40;12.13;;;;;;;-1.56;94.81;101005.34;5054750;28;20027;-72
2023/12/02 04:15:08;;;;;;;32.83;15.13;;;;;;;-1.54;95.63;100972.78;5060528;28;20021;-73
2023/12/02 04:17:33;;;;;;;34.70;14.00;;;;;;;-1.52;94.65;100992.06;5058316;28;20051;-73
2023/12/02 04:19:58;;;;;;;28.15;12.25;;;;;;;-1.49;94.89;100992.00;5054260;28;20029;-72
2023/12/02 04:22:24;;;;;;;31.33;14.95;;;;;;;-1.47;94.52;100989.34;5055672;28;20119;-72
2023/12/02 04:24:50;;;;;;;28.30;13.00;;;;;;;-1.47;94.68;100995.47;5047270;28;20029;-73
2023/12/02 04:27:15;;;;;;;30.63;13.65;;;;;;;-1.51;94.60;101000.84;5047656;28;20059;-72
2023/12/02 04:29:42;;;;;;;32.13;13.40;;;;;;;-1.56;94.53;100998.31;5049401;28;20021;-73
2023/12/02 04:32:10;;;;;;;28.42;13.02;;;;;;;-1.57;94.86;100999.19;5053339;28;20036;-72
2023/12/02 04:34:35;;;;;;;29.25;13.18;;;;;;;-1.57;95.00;101012.38;5066402;28;20028;-71
2023/12/02 04:37:01;;;;;;;28.20;12.95;;;;;;;-1.55;94.91;101004.44;5066621;28;20071;-71
2023/12/02 04:39:27;;;;;;;30.88;13.18;;;;;;;-1.54;94.98;100996.50;5069794;28;20025;-71
2023/12/02 04:41:53;;;;;;;29.10;12.65;;;;;;;-1.58;95.44;101000.97;5071236;28;20025;-71
2023/12/02 04:44:18;;;;;;;32.47;15.43;;;;;;;-1.58;94.47;100997.47;5064879;28;20166;-73
2023/12/02 04:46:43;;;;;;;28.02;12.77;;;;;;;-1.56;94.74;101002.72;5055626;28;20013;-72
2023/12/02 04:49:10;;;;;;;32.50;14.55;;;;;;;-1.57;94.36;100996.56;5055069;28;20136;-72
2023/12/02 04:51:35;;;;;;;30.88;13.93;;;;;;;-1.56;93.86;101000.94;5060301;28;20485;-73
2023/12/02 04:54:01;;;;;;;33.15;13.63;;;;;;;-1.53;94.51;101005.28;5059205;28;20051;-73
2023/12/02 04:56:26;;;;;;;27.05;11.50;;;;;;;-1.52;94.60;101005.25;5058808;28;20569;-72
2023/12/02 04:58:51;;;;;;;30.40;13.10;;;;;;;-1.51;94.76;101014.00;5058387;28;20024;-72
2023/12/02 05:01:17;;;;;;;26.73;12.73;;;;;;;-1.49;94.32;101005.19;5050840;28;20477;-72
2023/12/02 05:03:43;;;;;;;30.75;13.85;;;;;;;-1.47;95.32;101006.00;5053927;28;20389;-72
2023/12/02 05:06:14;;;;;;;30.08;14.48;;;;;;;-1.47;95.44;101013.06;5060388;28;20058;-71
2023/12/02 05:08:39;;;;;;;31.05;14.52;;;;;;;-1.48;95.72;101006.94;5058535;28;20380;-72
2023/12/02 05:11:05;;;;;;;30.23;13.65;;;;;;;-1.46;95.14;101013.03;5055083;28;20033;-72
2023/12/02 05:13:31;;;;;;;30.23;14.63;;;;;;;-1.45;94.73;101017.41;5050087;28;20495;-71
2023/12/02 05:15:56;;;;;;;33.40;14.60;;;;;;;-1.46;95.28;101015.66;5057587;28;20036;-73
2023/12/02 05:18:21;;;;;;;29.60;14.23;;;;;;;-1.47;94.47;101024.47;5053973;28;20600;-72
2023/12/02 05:20:47;;;;;;;27.67;13.35;;;;;;;-1.45;94.37;101029.69;5056061;28;20102;-72
2023/12/02 05:23:12;;;;;;;30.15;13.20;;;;;;;-1.45;95.25;101033.22;5053612;28;20032;-73
2023/12/02 05:25:37;;;;;;;29.55;13.85;;;;;;;-1.42;94.55;101040.19;5053552;28;20013;-72
2023/12/02 05:28:03;;;;;;;30.73;13.85;;;;;;;-1.41;94.79;101037.53;5053259;28;20400;-73
2023/12/02 05:30:28;;;;;;;32.60;14.57;;;;;;;-1.42;93.71;101041.06;5049252;28;20029;-72
2023/12/02 05:32:53;;;;;;;30.30;14.23;;;;;;;-1.40;93.59;101038.41;5050224;28;20043;-72
2023/12/02 05:35:19;;;;;;;31.92;13.88;;;;;;;-1.38;94.30;101039.22;5058863;28;20411;-73
2023/12/02 05:37:44;;;;;;;31.40;12.88;;;;;;;-1.34;94.51;101040.03;5056248;28;20028;-73
2023/12/02 05:40:10;;;;;;;28.48;12.70;;;;;;;-1.34;94.26;101042.69;5056172;28;20746;-73
2023/12/02 05:42:35;;;;;;;30.25;14.57;;;;;;;-1.36;94.21;101034.81;5051715;28;20032;-73
2023/12/02 05:45:00;;;;;;;36.35;15.05;;;;;;;-1.35;94.26;101023.34;5052089;28;20432;-73
2023/12/02 05:47:26;;;;;;;30.08;14.18;;;;;;;-1.31;94.22;101027.66;5057221;28;20388;-72
2023/12/02 05:49:51;;;;;;;30.38;13.63;;;;;;;-1.32;94.10;101031.22;5057292;28;20086;-72
2023/12/02 05:52:16;;;;;;;29.85;14.32;;;;;;;-1.27;95.26;101024.06;5053581;28;20036;-73
2023/12/02 05:54:42;;;;;;;33.60;16.02;;;;;;;-1.25;94.62;101029.28;5058358;28;20100;-69
2023/12/02 05:57:07;;;;;;;31.10;14.75;;;;;;;-1.27;94.12;101029.31;5063079;28;20118;-69
2023/12/02 05:59:32;;;;;;;29.75;13.63;;;;;;;-1.24;94.02;101033.66;5063680;28;20241;-69
2023/12/02 06:01:57;;;;;;;28.83;14.20;;;;;;;-1.23;93.83;101049.47;5060022;28;20017;-69
2023/12/02 06:04:23;;;;;;;29.92;13.30;;;;;;;-1.23;94.05;101057.38;5061145;28;20149;-69
2023/12/02 06:06:48;;;;;;;30.25;15.07;;;;;;;-1.26;94.09;101067.09;5056681;28;20029;-69
2023/12/02 06:09:14;;;;;;;29.23;12.43;;;;;;;-1.31;93.91;101064.56;5062556;28;20039;-70
2023/12/02 06:11:39;;;;;;;32.45;14.40;;;;;;;-1.32;93.85;101061.97;5063851;28;20036;-69
2023/12/02 06:14:07;;;;;;;28.13;12.82;;;;;;;-1.36;94.10;101065.56;5062860;28;20117;-70
2023/12/02 06:16:33;;;;;;;33.00;14.65;;;;;;;-1.39;94.09;101063.88;5061998;28;20036;-69
2023/12/02 06:18:58;;;;;;;33.22;15.20;;;;;;;-1.37;95.10;101058.56;5058002;28;20446;-69
2023/12/02 06:21:23;;;;;;;29.35;14.18;;;;;;;-1.39;94.58;101049.81;5060614;28;20059;-69
2023/12/02 06:23:49;;;;;;;29.38;13.10;;;;;;;-1.43;95.54;101057.78;5064702;28;20020;-69
2023/12/02 06:26:15;;;;;;;29.20;12.75;;;;;;;-1.44;96.00;101058.66;5063292;28;20108;-70
2023/12/02 06:28:40;;;;;;;31.63;14.07;;;;;;;-1.43;95.48;101065.69;5063375;28;20021;-69
2023/12/02 06:31:15;;;;;;;27.67;13.27;;;;;;;-1.39;95.06;101076.16;5056095;28;20191;-70
2023/12/02 06:33:41;;;;;;;32.42;13.93;;;;;;;-1.35;95.31;101077.84;5055821;28;20048;-69
2023/12/02 06:36:08;;;;;;;31.55;14.27;;;;;;;-1.36;95.51;101082.25;5057081;28;20021;-69
2023/12/02 06:38:35;;;;;;;30.73;14.25;;;;;;;-1.39;95.38;101078.78;5056475;28;20025;-69
2023/12/02 06:41:01;;;;;;;31.77;15.13;;;;;;;-1.36;96.23;101073.47;5056851;28;20033;-69
2023/12/02 06:43:27;;;;;;;32.15;13.07;;;;;;;-1.36;95.46;101078.72;5060016;28;20407;-70
2023/12/02 06:45:52;;;;;;;29.98;13.13;;;;;;;-1.38;95.74;101084.03;5056393;28;20021;-69
2023/12/02 06:48:17;;;;;;;29.80;13.85;;;;;;;-1.39;95.96;101086.72;5053906;28;20436;-69
2023/12/02 06:50:42;;;;;;;32.00;13.38;;;;;;;-1.39;96.07;101089.34;5049250;28;20123;-70
2023/12/02 06:53:08;;;;;;;30.67;14.80;;;;;;;-1.43;96.06;101089.41;5059266;28;20106;-70
2023/12/02 06:55:34;;;;;;;30.77;12.93;;;;;;;-1.43;95.75;101097.31;5057011;28;20049;-69
2023/12/02 06:57:59;;;;;;;31.48;13.57;;;;;;;-1.41;96.55;101097.28;5063959;28;20028;-69
2023/12/02 07:00:25;;;;;;;30.98;13.85;;;;;;;-1.37;96.41;101103.38;5063420;28;20499;-69
2023/12/02 07:02:51;;;;;;;31.90;13.65;;;;;;;-1.36;96.27;101105.09;5062851;28;20024;-69
2023/12/02 07:05:16;;;;;;;30.25;13.90;;;;;;;-1.36;96.76;101108.63;5064635;28;20089;-69
2023/12/02 07:07:41;;;;;;;29.13;12.20;;;;;;;-1.35;96.59;101106.84;5062366;28;20023;-69
2023/12/02 07:10:07;;;;;;;31.20;13.95;;;;;;;-1.37;96.52;101113.94;5059931;28;20357;-69
2023/12/02 07:12:33;;;;;;;33.72;14.77;;;;;;;-1.36;96.41;101119.16;5059641;28;20116;-69
2023/12/02 07:14:58;;;;;;;29.17;13.27;;;;;;;-1.35;96.55;101125.31;5062261;28;20033;-69
2023/12/02 07:17:23;;;;;;;31.63;14.98;;;;;;;-1.33;96.36;101119.09;5060241;28;20028;-69
2023/12/02 07:19:49;;;;;;;29.67;12.82;;;;;;;-1.32;96.26;101128.75;5065343;28;20063;-69
2023/12/02 07:22:14;;;;;;;31.25;13.95;;;;;;;-1.32;96.02;101135.78;5063810;28;20078;-70
2023/12/02 07:24:39;;;;;;;32.38;15.57;;;;;;;-1.33;96.48;101139.31;5063977;28;20035;-69
2023/12/02 07:27:04;;;;;;;32.65;15.25;;;;;;;-1.30;97.01;101134.00;5059221;28;20119;-69
2023/12/02 07:29:30;;;;;;;32.40;15.23;;;;;;;-1.26;96.95;101140.94;5064502;28;20048;-69
2023/12/02 07:31:55;;;;;;;39.40;15.48;;;;;;;-1.30;96.29;101140.13;5060028;28;20044;-69
2023/12/02 07:34:20;;;;;;;31.98;15.00;;;;;;;-1.27;96.75;101139.22;5062825;28;20412;-69
2023/12/02 07:36:45;;;;;;;31.95;13.85;;;;;;;-1.25;96.33;101138.25;5058585;28;20048;-69
2023/12/02 07:39:11;;;;;;;28.98;12.70;;;;;;;-1.20;96.75;101135.56;5062036;28;20491;-69
2023/12/02 07:41:37;;;;;;;30.80;14.55;;;;;;;-1.20;96.02;101138.19;5054443;28;20128;-69
2023/12/02 07:44:03;;;;;;;30.42;14.75;;;;;;;-1.19;97.26;101137.28;5053551;28;20043;-69
2023/12/02 07:46:28;;;;;;;31.58;14.07;;;;;;;-1.19;96.47;101133.78;5052138;28;20027;-69
2023/12/02 07:48:53;;;;;;;33.67;15.02;;;;;;;-1.21;95.98;101128.53;5059139;28;20041;-69
2023/12/02 07:51:19;;;;;;;32.22;14.98;;;;;;;-1.23;95.34;101132.97;5065117;28;20034;-69
2023/12/02 07:53:44;;;;;;;29.02;14.02;;;;;;;-1.24;95.30;101145.28;5061867;28;20053;-70
2023/12/02 07:56:10;;;;;;;32.95;14.80;;;;;;;-1.28;95.55;101135.69;5061154;28;20051;-70
2023/12/02 07:58:35;;;;;;;31.33;14.45;;;;;;;-1.32;95.56;101148.97;5062521;28;20395;-69
2023/12/02 08:01:01;;;;;;;32.55;15.82;;;;;;;-1.35;95.64;101162.22;5058672;28;20079;-69
2023/12/02 08:03:26;;;;;;;33.10;15.23;;;;;;;-1.41;95.89;101161.44;5057783;28;20055;-69
2023/12/02 08:05:51;;;;;;;29.80;12.85;;;;;;;-1.47;95.88;101163.31;5057843;28;20021;-70
2023/12/02 08:08:16;;;;;;;30.63;14.85;;;;;;;-1.50;96.43;101161.59;5060352;28;20025;-69
2023/12/02 08:10:42;;;;;;;28.85;13.10;;;;;;;-1.49;96.48;101163.34;5065033;28;20025;-69
2023/12/02 08:13:07;;;;;;;29.92;14.75;;;;;;;-1.52;97.04;101165.16;5070297;28;20041;-68
2023/12/02 08:15:32;;;;;;;30.10;14.68;;;;;;;-1.56;96.82;101163.50;5059703;28;20036;-69
2023/12/02 08:17:58;;;;;;;35.65;14.43;;;;;;;-1.59;97.08;101169.69;5065565;28;20020;-70
2023/12/02 08:20:23;;;;;;;31.55;14.57;;;;;;;-1.64;96.90;101175.03;5067341;28;20028;-69
2023/12/02 08:22:48;;;;;;;28.52;14.18;;;;;;;-1.72;97.47;101189.25;5066248;28;20354;-69
2023/12/02 08:25:14;;;;;;;29.20;13.65;;;;;;;-1.74;97.90;101193.66;5054951;28;20413;-73
2023/12/02 08:27:39;;;;;;;31.15;13.15;;;;;;;-1.75;97.61;101195.44;5058832;28;20024;-72
2023/12/02 08:30:07;;;;;;;31.40;13.60;;;;;;;-1.75;97.49;101198.06;5058948;28;20539;-72
2023/12/02 08:32:32;;;;;;;32.30;15.73;;;;;;;-1.73;98.53;101203.31;5060229;28;20090;-72
2023/12/02 08:34:57;;;;;;;30.15;13.82;;;;;;;-1.78;98.82;101201.59;5056381;28;20025;-72
2023/12/02 08:37:23;;;;;;;32.60;15.10;;;;;;;-1.81;98.74;101214.84;5058146;28;20400;-72
2023/12/02 08:39:48;;;;;;;32.05;15.35;;;;;;;-1.84;99.53;101214.88;5054833;28;20028;-72
2023/12/02 08:42:14;;;;;;;27.70;12.85;;;;;;;-1.85;99.79;101214.91;5053088;28;20021;-72
2023/12/02 08:44:39;;;;;;;37.70;15.52;;;;;;;-1.86;99.72;101219.31;5050506;28;20381;-72
2023/12/02 08:47:06;;;;;;;34.63;15.75;;;;;;;-1.87;99.73;101228.13;5056247;28;20046;-73
2023/12/02 08:49:31;;;;;;;31.42;14.82;;;;;;;-1.89;99.77;101224.59;5060218;28;20460;-72
2023/12/02 08:51:57;;;;;;;31.10;14.43;;;;;;;-1.88;99.94;101231.63;5045031;28;20067;-72
2023/12/02 08:54:22;;;;;;;33.28;14.75;;;;;;;-1.84;100.00;101232.47;5037339;28;20037;-72
2023/12/02 08:56:47;;;;;;;29.48;13.82;;;;;;;-1.79;100.00;101230.63;5048110;28;20038;-72
2023/12/02 08:59:12;;;;;;;30.73;14.00;;;;;;;-1.78;99.90;101230.59;5048604;28;20443;-72
2023/12/02 09:01:38;;;;;;;33.17;15.07;;;;;;;-1.70;100.00;101226.97;5042746;28;20025;-72
2023/12/02 09:04:07;;;;;;;30.02;14.40;;;;;;;-1.64;99.73;101230.38;5049378;28;20029;-72
2023/12/02 09:06:33;;;;;;;33.47;15.40;;;;;;;-1.59;99.53;101228.53;5041549;28;20025;-72
2023/12/02 09:08:58;;;;;;;32.97;15.80;;;;;;;-1.55;100.00;101228.47;5047714;28;20031;-72
2023/12/02 09:11:23;;;;;;;31.83;13.43;;;;;;;-1.49;99.48;101237.16;5050912;28;20040;-72
2023/12/02 09:13:49;;;;;;;33.72;16.17;;;;;;;-1.44;99.21;101232.66;5049538;28;20127;-72
2023/12/02 09:16:24;;;;;;;33.95;16.05;;;;;;;-1.35;99.51;101233.41;5048816;28;20048;-72
2023/12/02 09:18:49;;;;;;;33.80;15.20;;;;;;;-1.29;98.63;101238.56;5050624;28;20053;-72
2023/12/02 09:21:24;;;;;;;35.90;15.98;;;;;;;-1.24;98.43;101239.38;5043190;28;20132;-72
2023/12/02 09:23:51;;;;;;;33.60;15.75;;;;;;;-1.23;98.46;101241.09;5046306;28;20052;-73
2023/12/02 09:26:43;;;;;;;32.05;16.27;;;;;;;-1.15;98.96;101231.28;5041436;28;20489;-72
2023/12/02 09:29:08;;;;;;;32.90;14.93;;;;;;;-1.12;97.15;101233.84;5039740;28;20049;-72
2023/12/02 09:31:34;;;;;;;36.42;17.35;;;;;;;-1.09;96.73;101243.47;5039155;28;20036;-72
2023/12/02 09:34:02;;;;;;;34.55;15.90;;;;;;;-1.03;96.89;101239.88;5042481;28;20296;-70
2023/12/02 09:36:33;;;;;;;33.70;14.48;;;;;;;-1.00;96.67;101239.81;5050413;28;20035;-69
2023/12/02 09:39:19;;;;;;;35.38;13.95;;;;;;;-0.93;96.82;101249.34;5060390;28;20025;-69
2023/12/02 09:41:49;;;;;;;33.30;16.40;;;;;;;-0.87;96.27;101249.22;5050379;28;20124;-70
2023/12/02 09:44:23;;;;;;;32.72;14.35;;;;;;;-0.82;96.43;101254.41;5063352;28;20078;-70
2023/12/02 09:47:18;;;;;;;31.83;16.42;;;;;;;-0.79;95.64;101263.16;5065897;28;20040;-69
2023/12/02 09:49:59;;;;;;;34.80;15.25;;;;;;;-0.76;95.19;101257.81;5063679;28;20477;-69
2023/12/02 09:52:30;;;;;;;33.30;16.08;;;;;;;-0.74;94.71;101263.91;5059943;28;20052;-69
2023/12/02 09:55:26;;;;;;;34.13;14.40;;;;;;;-0.69;95.41;101261.16;5059784;28;20120;-69
2023/12/02 09:58:13;;;;;;;31.60;15.63;;;;;;;-0.67;94.95;101261.13;5064702;28;20032;-70
2023/12/02 10:00:50;;;;;;;31.05;15.55;;;;;;;-0.69;94.42;101263.81;5055333;28;20207;-70
2023/12/02 10:03:31;;;;;;;33.78;17.30;;;;;;;-0.67;94.66;101261.13;5062822;28;20350;-69
2023/12/02 10:06:06;;;;;;;36.83;16.75;;;;;;;-0.63;95.19;101257.53;5054611;28;20017;-69
2023/12/02 10:08:31;;;;;;;32.70;16.77;;;;;;;-0.58;95.15;101250.41;5060251;28;20017;-69
2023/12/02 10:11:07;;;;;;;38.35;18.42;;;;;;;-0.52;95.17;101242.34;5059900;28;20301;-70
2023/12/02 10:13:44;;;;;;;36.70;18.33;;;;;;;-0.44;95.59;101250.09;5062894;28;20084;-69
2023/12/02 10:16:14;;;;;;;31.85;15.98;;;;;;;-0.40;95.15;101254.44;5064354;28;20032;-69
2023/12/02 10:18:47;;;;;;;34.83;17.52;;;;;;;-0.37;94.87;101249.97;5059418;28;20041;-69
2023/12/02 10:21:15;;;;;;;31.48;15.88;;;;;;;-0.34;93.96;101253.44;5065564;28;20032;-69
2023/12/02 10:23:51;;;;;;;34.67;15.35;;;;;;;-0.29;93.93;101254.19;5063302;28;20021;-70
2023/12/02 10:26:28;;;;;;;33.50;16.60;;;;;;;-0.29;92.93;101255.09;5057104;28;20051;-69
2023/12/02 10:29:02;;;;;;;34.33;15.95;;;;;;;-0.32;93.15;101263.06;5062308;28;20028;-69
2023/12/02 10:31:30;;;;;;;32.58;15.90;;;;;;;-0.32;93.33;101257.78;5058789;28;20165;-69
2023/12/02 10:34:15;;;;;;;32.80;15.02;;;;;;;-0.27;93.76;101265.59;5066745;28;20028;-70
2023/12/02 10:36:45;;;;;;;33.83;18.13;;;;;;;-0.28;93.78;101264.75;5058066;28;20063;-69
2023/12/02 10:39:15;;;;;;;34.05;17.70;;;;;;;-0.21;93.84;101265.47;5060668;28;20479;-69
2023/12/02 10:41:51;;;;;;;36.92;17.35;;;;;;;-0.17;93.13;101267.16;5058902;28;20076;-70
2023/12/02 10:44:24;;;;;;;37.97;16.60;;;;;;;-0.12;92.80;101265.25;5062927;28;20036;-71
2023/12/02 10:46:53;;;;;;;31.60;14.43;;;;;;;-0.07;93.37;101273.09;5050591;28;20021;-72
2023/12/02 10:49:19;;;;;;;34.88;17.33;;;;;;;-0.06;91.92;101272.19;5051767;28;20051;-72
2023/12/02 10:51:46;;;;;;;36.85;17.38;;;;;;;-0.04;92.17;101279.19;5052011;28;20025;-71
2023/12/02 10:54:17;;;;;;;37.33;16.88;;;;;;;-0.07;92.03;101273.97;5053041;28;20043;-73
2023/12/02 10:56:48;;;;;;;32.70;16.52;;;;;;;-0.08;91.98;101281.94;5055550;28;20031;-73
2023/12/02 10:59:16;;;;;;;32.53;16.58;;;;;;;-0.09;92.60;101275.78;5054559;28;20204;-73
2023/12/02 11:01:44;;;;;;;38.53;18.35;;;;;;;-0.04;93.06;101273.03;5055539;28;20660;-73
2023/12/02 11:04:21;;;;;;;33.40;17.25;;;;;;;-0.02;93.63;101268.56;5054539;28;20039;-73
2023/12/02 11:06:53;;;;;;;34.60;16.17;;;;;;;0.03;94.01;101269.34;5049800;28;20214;-73